sensor_id;sensor_type;location;lat;lon;timestamp;P1;durP1;ratioP1;P2;durP2;ratioP2
76204;SDS011;64986;55.672;37.628;2023-03-21T00:00:34;3.95;;;2.03;;
76204;SDS011;64986;55.672;37.628;2023-03-21T00:02:59;2.38;;;1.98;;
76204;SDS011;64986;55.672;37.628;2023-03-21T00:05:25;4.55;;;1.90;;
76204;SDS011;64986;55.672;37.628;2023-03-21T00:07:51;3.13;;;2.13;;
76204;SDS011;64986;55.672;37.628;2023-03-21T00:10:17;7.07;;;2.80;;
76204;SDS011;64986;55.672;37.628;2023-03-21T00:12:42;7.68;;;2.60;;
76204;SDS011;64986;55.672;37.628;2023-03-21T00:15:08;4.65;;;1.83;;
76204;SDS011;64986;55.672;37.628;2023-03-21T00:17:35;3.88;;;1.98;;
76204;SDS011;64986;55.672;37.628;2023-03-21T00:20:04;7.82;;;2.88;;
76204;SDS011;64986;55.672;37.628;2023-03-21T00:22:35;3.35;;;2.00;;
76204;SDS011;64986;55.672;37.628;2023-03-21T00:25:00;4.13;;;1.70;;
76204;SDS011;64986;55.672;37.628;2023-03-21T00:27:27;3.90;;;2.45;;
76204;SDS011;64986;55.672;37.628;2023-03-21T00:29:52;8.50;;;2.53;;
76204;SDS011;64986;55.672;37.628;2023-03-21T00:32:18;2.95;;;2.13;;
76204;SDS011;64986;55.672;37.628;2023-03-21T00:34:45;3.92;;;2.20;;
76204;SDS011;64986;55.672;37.628;2023-03-21T00:37:11;4.85;;;2.05;;
76204;SDS011;64986;55.672;37.628;2023-03-21T00:39:40;3.92;;;2.05;;
76204;SDS011;64986;55.672;37.628;2023-03-21T00:42:06;3.75;;;2.53;;
76204;SDS011;64986;55.672;37.628;2023-03-21T00:44:32;7.28;;;1.90;;
76204;SDS011;64986;55.672;37.628;2023-03-21T00:47:04;7.93;;;3.33;;
76204;SDS011;64986;55.672;37.628;2023-03-21T00:49:31;5.32;;;2.22;;
76204;SDS011;64986;55.672;37.628;2023-03-21T00:52:03;3.55;;;2.00;;
76204;SDS011;64986;55.672;37.628;2023-03-21T00:54:31;4.97;;;2.10;;
76204;SDS011;64986;55.672;37.628;2023-03-21T00:56:57;4.82;;;2.45;;
76204;SDS011;64986;55.672;37.628;2023-03-21T00:59:23;3.45;;;1.77;;
76204;SDS011;64986;55.672;37.628;2023-03-21T01:01:49;3.95;;;2.17;;
76204;SDS011;64986;55.672;37.628;2023-03-21T01:04:17;9.05;;;2.60;;
76204;SDS011;64986;55.672;37.628;2023-03-21T01:06:43;5.20;;;2.78;;
76204;SDS011;64986;55.672;37.628;2023-03-21T01:09:16;8.18;;;3.15;;
76204;SDS011;64986;55.672;37.628;2023-03-21T01:11:43;4.45;;;2.50;;
76204;SDS011;64986;55.672;37.628;2023-03-21T01:14:09;4.45;;;2.63;;
76204;SDS011;64986;55.672;37.628;2023-03-21T01:16:35;5.57;;;2.28;;
76204;SDS011;64986;55.672;37.628;2023-03-21T01:19:02;4.15;;;1.80;;
76204;SDS011;64986;55.672;37.628;2023-03-21T01:21:29;4.18;;;2.38;;
76204;SDS011;64986;55.672;37.628;2023-03-21T01:23:55;3.92;;;1.98;;
76204;SDS011;64986;55.672;37.628;2023-03-21T01:26:21;6.07;;;2.10;;
76204;SDS011;64986;55.672;37.628;2023-03-21T01:28:47;3.63;;;2.00;;
76204;SDS011;64986;55.672;37.628;2023-03-21T01:31:13;7.13;;;2.85;;
76204;SDS011;64986;55.672;37.628;2023-03-21T01:33:40;3.78;;;2.33;;
76204;SDS011;64986;55.672;37.628;2023-03-21T01:36:07;3.95;;;2.58;;
76204;SDS011;64986;55.672;37.628;2023-03-21T01:38:34;6.60;;;2.50;;
76204;SDS011;64986;55.672;37.628;2023-03-21T01:41:00;3.40;;;1.98;;
76204;SDS011;64986;55.672;37.628;2023-03-21T01:43:28;4.28;;;2.58;;
76204;SDS011;64986;55.672;37.628;2023-03-21T01:51:32;3.42;;;2.40;;
76204;SDS011;64986;55.672;37.628;2023-03-21T01:54:02;8.80;;;3.60;;
76204;SDS011;64986;55.672;37.628;2023-03-21T01:56:33;6.10;;;3.00;;
76204;SDS011;64986;55.672;37.628;2023-03-21T01:59:07;3.97;;;3.05;;
76204;SDS011;64986;55.672;37.628;2023-03-21T02:01:39;4.82;;;2.42;;
76204;SDS011;64986;55.672;37.628;2023-03-21T02:04:06;4.45;;;2.33;;
76204;SDS011;64986;55.672;37.628;2023-03-21T02:06:43;4.55;;;2.65;;
76204;SDS011;64986;55.672;37.628;2023-03-21T02:09:15;9.20;;;2.63;;
76204;SDS011;64986;55.672;37.628;2023-03-21T02:11:44;3.50;;;3.00;;
76204;SDS011;64986;55.672;37.628;2023-03-21T02:14:12;5.60;;;3.30;;
76204;SDS011;64986;55.672;37.628;2023-03-21T02:16:47;5.53;;;3.20;;
76204;SDS011;64986;55.672;37.628;2023-03-21T02:21:54;4.65;;;2.67;;
76204;SDS011;64986;55.672;37.628;2023-03-21T02:27:21;5.00;;;2.55;;
76204;SDS011;64986;55.672;37.628;2023-03-21T02:32:45;5.95;;;3.25;;
76204;SDS011;64986;55.672;37.628;2023-03-21T02:35:36;6.25;;;2.85;;
76204;SDS011;64986;55.672;37.628;2023-03-21T02:44:04;6.72;;;2.47;;
76204;SDS011;64986;55.672;37.628;2023-03-21T02:46:31;8.48;;;2.80;;
76204;SDS011;64986;55.672;37.628;2023-03-21T02:51:42;4.70;;;2.63;;
76204;SDS011;64986;55.672;37.628;2023-03-21T02:54:14;5.40;;;3.15;;
76204;SDS011;64986;55.672;37.628;2023-03-21T02:56:42;7.53;;;2.30;;
76204;SDS011;64986;55.672;37.628;2023-03-21T02:59:10;8.07;;;2.83;;
76204;SDS011;64986;55.672;37.628;2023-03-21T03:01:37;6.75;;;2.83;;
76204;SDS011;64986;55.672;37.628;2023-03-21T03:04:02;7.35;;;3.58;;
76204;SDS011;64986;55.672;37.628;2023-03-21T03:06:29;4.60;;;2.25;;
76204;SDS011;64986;55.672;37.628;2023-03-21T03:09:11;5.50;;;2.83;;
76204;SDS011;64986;55.672;37.628;2023-03-21T03:11:46;6.28;;;3.45;;
76204;SDS011;64986;55.672;37.628;2023-03-21T03:14:33;5.65;;;3.60;;
76204;SDS011;64986;55.672;37.628;2023-03-21T03:19:53;4.78;;;2.63;;
76204;SDS011;64986;55.672;37.628;2023-03-21T03:22:38;4.60;;;2.50;;
76204;SDS011;64986;55.672;37.628;2023-03-21T03:25:41;4.97;;;3.25;;
76204;SDS011;64986;55.672;37.628;2023-03-21T03:28:15;5.22;;;3.38;;
76204;SDS011;64986;55.672;37.628;2023-03-21T03:30:45;5.18;;;3.40;;
76204;SDS011;64986;55.672;37.628;2023-03-21T03:33:12;6.18;;;2.83;;
76204;SDS011;64986;55.672;37.628;2023-03-21T03:35:41;5.93;;;3.60;;
76204;SDS011;64986;55.672;37.628;2023-03-21T03:38:08;5.53;;;2.42;;
76204;SDS011;64986;55.672;37.628;2023-03-21T03:40:40;7.13;;;2.95;;
76204;SDS011;64986;55.672;37.628;2023-03-21T03:43:10;4.72;;;2.53;;
76204;SDS011;64986;55.672;37.628;2023-03-21T03:45:49;4.72;;;3.05;;
76204;SDS011;64986;55.672;37.628;2023-03-21T03:48:27;9.05;;;2.78;;
76204;SDS011;64986;55.672;37.628;2023-03-21T03:53:35;5.75;;;2.85;;
76204;SDS011;64986;55.672;37.628;2023-03-21T03:56:06;4.80;;;2.97;;
76204;SDS011;64986;55.672;37.628;2023-03-21T03:58:35;4.00;;;2.47;;
76204;SDS011;64986;55.672;37.628;2023-03-21T04:01:03;4.85;;;2.55;;
76204;SDS011;64986;55.672;37.628;2023-03-21T04:03:30;9.30;;;2.90;;
76204;SDS011;64986;55.672;37.628;2023-03-21T04:05:56;12.63;;;4.82;;
76204;SDS011;64986;55.672;37.628;2023-03-21T04:08:21;6.18;;;3.05;;
76204;SDS011;64986;55.672;37.628;2023-03-21T04:10:47;7.43;;;3.33;;
76204;SDS011;64986;55.672;37.628;2023-03-21T04:13:13;7.32;;;2.70;;
76204;SDS011;64986;55.672;37.628;2023-03-21T04:15:39;6.30;;;3.40;;
76204;SDS011;64986;55.672;37.628;2023-03-21T04:18:05;8.40;;;3.63;;
76204;SDS011;64986;55.672;37.628;2023-03-21T04:20:30;5.18;;;3.22;;
76204;SDS011;64986;55.672;37.628;2023-03-21T04:22:56;6.95;;;2.95;;
76204;SDS011;64986;55.672;37.628;2023-03-21T04:25:22;7.20;;;3.10;;
76204;SDS011;64986;55.672;37.628;2023-03-21T04:27:47;11.93;;;5.03;;
76204;SDS011;64986;55.672;37.628;2023-03-21T04:30:13;7.95;;;3.38;;
76204;SDS011;64986;55.672;37.628;2023-03-21T04:32:39;5.75;;;2.72;;
76204;SDS011;64986;55.672;37.628;2023-03-21T04:35:05;5.43;;;3.20;;
76204;SDS011;64986;55.672;37.628;2023-03-21T04:37:32;7.05;;;3.70;;
76204;SDS011;64986;55.672;37.628;2023-03-21T04:39:59;3.90;;;2.42;;
76204;SDS011;64986;55.672;37.628;2023-03-21T04:42:27;5.65;;;3.40;;
76204;SDS011;64986;55.672;37.628;2023-03-21T04:44:53;7.97;;;2.80;;
76204;SDS011;64986;55.672;37.628;2023-03-21T04:47:18;5.72;;;3.50;;
76204;SDS011;64986;55.672;37.628;2023-03-21T04:49:45;9.32;;;3.95;;
76204;SDS011;64986;55.672;37.628;2023-03-21T04:52:14;7.95;;;4.75;;
76204;SDS011;64986;55.672;37.628;2023-03-21T04:54:39;7.80;;;4.60;;
76204;SDS011;64986;55.672;37.628;2023-03-21T04:57:05;9.57;;;4.30;;
76204;SDS011;64986;55.672;37.628;2023-03-21T04:59:32;8.45;;;4.10;;
76204;SDS011;64986;55.672;37.628;2023-03-21T05:01:57;8.48;;;5.45;;
76204;SDS011;64986;55.672;37.628;2023-03-21T05:04:24;14.32;;;8.10;;
76204;SDS011;64986;55.672;37.628;2023-03-21T05:06:50;11.52;;;7.40;;
76204;SDS011;64986;55.672;37.628;2023-03-21T05:09:16;18.13;;;8.55;;
76204;SDS011;64986;55.672;37.628;2023-03-21T05:11:42;11.13;;;6.65;;
76204;SDS011;64986;55.672;37.628;2023-03-21T05:14:09;13.55;;;6.75;;
76204;SDS011;64986;55.672;37.628;2023-03-21T05:16:38;14.48;;;8.05;;
76204;SDS011;64986;55.672;37.628;2023-03-21T05:19:09;11.13;;;7.35;;
76204;SDS011;64986;55.672;37.628;2023-03-21T05:21:38;10.50;;;6.00;;
76204;SDS011;64986;55.672;37.628;2023-03-21T05:24:07;11.05;;;6.18;;
76204;SDS011;64986;55.672;37.628;2023-03-21T05:26:37;15.93;;;6.82;;
76204;SDS011;64986;55.672;37.628;2023-03-21T05:29:03;10.77;;;5.22;;
76204;SDS011;64986;55.672;37.628;2023-03-21T05:31:30;12.18;;;6.07;;
76204;SDS011;64986;55.672;37.628;2023-03-21T05:33:55;10.52;;;5.53;;
76204;SDS011;64986;55.672;37.628;2023-03-21T05:36:21;8.75;;;5.07;;
76204;SDS011;64986;55.672;37.628;2023-03-21T05:38:47;8.90;;;4.97;;
76204;SDS011;64986;55.672;37.628;2023-03-21T05:41:13;7.93;;;4.93;;
76204;SDS011;64986;55.672;37.628;2023-03-21T05:43:39;10.30;;;5.50;;
76204;SDS011;64986;55.672;37.628;2023-03-21T05:46:05;13.65;;;5.30;;
76204;SDS011;64986;55.672;37.628;2023-03-21T05:48:31;7.07;;;4.32;;
76204;SDS011;64986;55.672;37.628;2023-03-21T05:50:56;7.75;;;4.18;;
76204;SDS011;64986;55.672;37.628;2023-03-21T05:53:22;13.02;;;4.05;;
76204;SDS011;64986;55.672;37.628;2023-03-21T05:55:48;14.80;;;5.50;;
76204;SDS011;64986;55.672;37.628;2023-03-21T05:58:13;11.95;;;5.07;;
76204;SDS011;64986;55.672;37.628;2023-03-21T06:00:39;7.38;;;3.28;;
76204;SDS011;64986;55.672;37.628;2023-03-21T06:03:04;10.73;;;5.32;;
76204;SDS011;64986;55.672;37.628;2023-03-21T06:05:30;8.55;;;3.38;;
76204;SDS011;64986;55.672;37.628;2023-03-21T06:07:55;8.43;;;3.85;;
76204;SDS011;64986;55.672;37.628;2023-03-21T06:10:21;5.90;;;3.78;;
76204;SDS011;64986;55.672;37.628;2023-03-21T06:12:47;11.30;;;5.88;;
76204;SDS011;64986;55.672;37.628;2023-03-21T06:15:13;6.47;;;4.15;;
76204;SDS011;64986;55.672;37.628;2023-03-21T06:17:38;7.35;;;3.70;;
76204;SDS011;64986;55.672;37.628;2023-03-21T06:20:05;7.25;;;3.40;;
76204;SDS011;64986;55.672;37.628;2023-03-21T06:22:32;7.60;;;3.72;;
76204;SDS011;64986;55.672;37.628;2023-03-21T06:24:58;5.32;;;3.10;;
76204;SDS011;64986;55.672;37.628;2023-03-21T06:27:24;11.05;;;4.88;;
76204;SDS011;64986;55.672;37.628;2023-03-21T06:29:50;7.90;;;4.25;;
76204;SDS011;64986;55.672;37.628;2023-03-21T06:32:16;12.23;;;4.60;;
76204;SDS011;64986;55.672;37.628;2023-03-21T06:34:41;9.68;;;3.78;;
76204;SDS011;64986;55.672;37.628;2023-03-21T06:37:07;7.45;;;3.90;;
76204;SDS011;64986;55.672;37.628;2023-03-21T06:39:33;11.95;;;4.97;;
76204;SDS011;64986;55.672;37.628;2023-03-21T06:41:59;7.13;;;3.55;;
76204;SDS011;64986;55.672;37.628;2023-03-21T06:44:25;8.35;;;4.28;;
76204;SDS011;64986;55.672;37.628;2023-03-21T06:46:51;11.05;;;4.43;;
76204;SDS011;64986;55.672;37.628;2023-03-21T06:49:18;5.93;;;3.13;;
76204;SDS011;64986;55.672;37.628;2023-03-21T06:51:44;7.88;;;4.25;;
76204;SDS011;64986;55.672;37.628;2023-03-21T06:54:10;8.88;;;3.70;;
76204;SDS011;64986;55.672;37.628;2023-03-21T06:56:37;7.60;;;3.70;;
76204;SDS011;64986;55.672;37.628;2023-03-21T06:59:03;6.32;;;3.92;;
76204;SDS011;64986;55.672;37.628;2023-03-21T07:01:29;6.20;;;3.78;;
76204;SDS011;64986;55.672;37.628;2023-03-21T07:03:55;5.43;;;3.22;;
76204;SDS011;64986;55.672;37.628;2023-03-21T07:06:23;6.93;;;4.63;;
76204;SDS011;64986;55.672;37.628;2023-03-21T07:08:50;6.63;;;3.75;;
76204;SDS011;64986;55.672;37.628;2023-03-21T07:11:17;7.10;;;3.20;;
76204;SDS011;64986;55.672;37.628;2023-03-21T07:13:42;8.07;;;4.57;;
76204;SDS011;64986;55.672;37.628;2023-03-21T07:16:08;5.90;;;3.95;;
76204;SDS011;64986;55.672;37.628;2023-03-21T07:18:34;5.75;;;3.78;;
76204;SDS011;64986;55.672;37.628;2023-03-21T07:21:00;8.85;;;4.88;;
76204;SDS011;64986;55.672;37.628;2023-03-21T07:23:25;6.50;;;3.95;;
76204;SDS011;64986;55.672;37.628;2023-03-21T07:25:52;10.20;;;5.30;;
76204;SDS011;64986;55.672;37.628;2023-03-21T07:28:18;10.73;;;5.53;;
76204;SDS011;64986;55.672;37.628;2023-03-21T07:30:44;8.30;;;5.13;;
76204;SDS011;64986;55.672;37.628;2023-03-21T07:33:15;6.13;;;4.40;;
76204;SDS011;64986;55.672;37.628;2023-03-21T07:35:41;8.35;;;4.05;;
76204;SDS011;64986;55.672;37.628;2023-03-21T07:38:06;13.73;;;6.10;;
76204;SDS011;64986;55.672;37.628;2023-03-21T07:40:32;8.25;;;5.45;;
76204;SDS011;64986;55.672;37.628;2023-03-21T07:42:57;9.75;;;5.28;;
76204;SDS011;64986;55.672;37.628;2023-03-21T07:45:23;10.60;;;5.50;;
76204;SDS011;64986;55.672;37.628;2023-03-21T07:47:51;10.57;;;5.13;;
76204;SDS011;64986;55.672;37.628;2023-03-21T07:50:17;7.20;;;5.00;;
76204;SDS011;64986;55.672;37.628;2023-03-21T07:52:42;5.05;;;2.75;;
76204;SDS011;64986;55.672;37.628;2023-03-21T07:55:08;8.35;;;3.95;;
76204;SDS011;64986;55.672;37.628;2023-03-21T07:57:35;6.32;;;4.07;;
76204;SDS011;64986;55.672;37.628;2023-03-21T08:00:01;6.65;;;4.72;;
76204;SDS011;64986;55.672;37.628;2023-03-21T08:02:28;4.90;;;2.88;;
76204;SDS011;64986;55.672;37.628;2023-03-21T08:04:54;5.32;;;3.08;;
76204;SDS011;64986;55.672;37.628;2023-03-21T08:07:20;6.93;;;4.05;;
76204;SDS011;64986;55.672;37.628;2023-03-21T08:09:45;6.35;;;4.70;;
76204;SDS011;64986;55.672;37.628;2023-03-21T08:12:11;8.40;;;3.92;;
76204;SDS011;64986;55.672;37.628;2023-03-21T08:14:37;12.05;;;5.00;;
76204;SDS011;64986;55.672;37.628;2023-03-21T08:17:03;8.02;;;4.35;;
76204;SDS011;64986;55.672;37.628;2023-03-21T08:19:30;6.82;;;4.72;;
76204;SDS011;64986;55.672;37.628;2023-03-21T08:21:56;6.10;;;4.18;;
76204;SDS011;64986;55.672;37.628;2023-03-21T08:24:25;7.60;;;4.70;;
76204;SDS011;64986;55.672;37.628;2023-03-21T08:26:52;6.05;;;4.40;;
76204;SDS011;64986;55.672;37.628;2023-03-21T08:29:17;9.73;;;5.97;;
76204;SDS011;64986;55.672;37.628;2023-03-21T08:31:43;8.57;;;4.43;;
76204;SDS011;64986;55.672;37.628;2023-03-21T08:34:08;8.25;;;5.50;;
76204;SDS011;64986;55.672;37.628;2023-03-21T08:36:34;7.30;;;5.15;;
76204;SDS011;64986;55.672;37.628;2023-03-21T08:39:01;8.82;;;5.85;;
76204;SDS011;64986;55.672;37.628;2023-03-21T08:41:30;6.35;;;3.80;;
76204;SDS011;64986;55.672;37.628;2023-03-21T08:43:56;8.15;;;5.03;;
76204;SDS011;64986;55.672;37.628;2023-03-21T08:46:22;8.00;;;4.50;;
76204;SDS011;64986;55.672;37.628;2023-03-21T08:48:47;11.68;;;5.10;;
76204;SDS011;64986;55.672;37.628;2023-03-21T08:51:13;9.15;;;5.10;;
76204;SDS011;64986;55.672;37.628;2023-03-21T08:53:38;6.35;;;4.65;;
76204;SDS011;64986;55.672;37.628;2023-03-21T08:56:05;7.85;;;4.82;;
76204;SDS011;64986;55.672;37.628;2023-03-21T08:58:31;10.98;;;4.60;;
76204;SDS011;64986;55.672;37.628;2023-03-21T09:00:57;6.07;;;3.97;;
76204;SDS011;64986;55.672;37.628;2023-03-21T09:03:22;9.20;;;4.60;;
76204;SDS011;64986;55.672;37.628;2023-03-21T09:05:48;9.90;;;4.75;;
76204;SDS011;64986;55.672;37.628;2023-03-21T09:08:18;10.80;;;4.35;;
76204;SDS011;64986;55.672;37.628;2023-03-21T09:10:47;7.10;;;4.53;;
76204;SDS011;64986;55.672;37.628;2023-03-21T09:13:14;7.38;;;4.40;;
76204;SDS011;64986;55.672;37.628;2023-03-21T09:15:39;6.25;;;4.18;;
76204;SDS011;64986;55.672;37.628;2023-03-21T09:18:05;8.65;;;5.03;;
76204;SDS011;64986;55.672;37.628;2023-03-21T09:20:37;4.18;;;3.47;;
76204;SDS011;64986;55.672;37.628;2023-03-21T09:23:07;7.45;;;4.13;;
76204;SDS011;64986;55.672;37.628;2023-03-21T09:25:34;7.03;;;4.00;;
76204;SDS011;64986;55.672;37.628;2023-03-21T09:28:00;5.05;;;3.47;;
76204;SDS011;64986;55.672;37.628;2023-03-21T09:30:29;5.22;;;3.38;;
76204;SDS011;64986;55.672;37.628;2023-03-21T09:33:01;6.18;;;4.05;;
76204;SDS011;64986;55.672;37.628;2023-03-21T09:35:30;5.05;;;3.53;;
76204;SDS011;64986;55.672;37.628;2023-03-21T09:37:57;3.97;;;2.60;;
76204;SDS011;64986;55.672;37.628;2023-03-21T09:40:48;4.75;;;3.90;;
76204;SDS011;64986;55.672;37.628;2023-03-21T09:43:31;5.28;;;2.85;;
76204;SDS011;64986;55.672;37.628;2023-03-21T09:46:12;4.55;;;3.10;;
76204;SDS011;64986;55.672;37.628;2023-03-21T09:49:00;3.53;;;2.58;;
76204;SDS011;64986;55.672;37.628;2023-03-21T09:51:43;4.00;;;3.08;;
76204;SDS011;64986;55.672;37.628;2023-03-21T09:54:32;4.57;;;3.28;;
76204;SDS011;64986;55.672;37.628;2023-03-21T09:59:52;11.10;;;3.00;;
76204;SDS011;64986;55.672;37.628;2023-03-21T10:05:20;5.18;;;3.10;;
76204;SDS011;64986;55.672;37.628;2023-03-21T10:07:56;4.70;;;2.92;;
76204;SDS011;64986;55.672;37.628;2023-03-21T10:10:27;5.55;;;3.15;;
76204;SDS011;64986;55.672;37.628;2023-03-21T10:12:56;6.43;;;3.50;;
76204;SDS011;64986;55.672;37.628;2023-03-21T10:15:23;6.53;;;3.45;;
76204;SDS011;64986;55.672;37.628;2023-03-21T10:18:12;7.53;;;3.53;;
76204;SDS011;64986;55.672;37.628;2023-03-21T10:20:41;5.10;;;3.63;;
76204;SDS011;64986;55.672;37.628;2023-03-21T10:23:10;5.53;;;3.53;;
76204;SDS011;64986;55.672;37.628;2023-03-21T10:25:42;4.82;;;3.05;;
76204;SDS011;64986;55.672;37.628;2023-03-21T10:28:15;6.30;;;3.53;;
76204;SDS011;64986;55.672;37.628;2023-03-21T10:31:04;4.93;;;3.42;;
76204;SDS011;64986;55.672;37.628;2023-03-21T10:33:42;6.20;;;3.55;;
76204;SDS011;64986;55.672;37.628;2023-03-21T10:38:42;6.47;;;4.22;;
76204;SDS011;64986;55.672;37.628;2023-03-21T10:41:10;8.18;;;4.22;;
76204;SDS011;64986;55.672;37.628;2023-03-21T10:43:37;7.53;;;4.10;;
76204;SDS011;64986;55.672;37.628;2023-03-21T10:46:06;15.35;;;4.22;;
76204;SDS011;64986;55.672;37.628;2023-03-21T10:48:41;6.57;;;3.13;;
76204;SDS011;64986;55.672;37.628;2023-03-21T10:51:13;4.93;;;3.55;;
76204;SDS011;64986;55.672;37.628;2023-03-21T10:53:50;5.28;;;3.22;;
76204;SDS011;64986;55.672;37.628;2023-03-21T10:56:25;9.05;;;4.25;;
76204;SDS011;64986;55.672;37.628;2023-03-21T10:58:53;9.25;;;3.83;;
76204;SDS011;64986;55.672;37.628;2023-03-21T11:01:27;8.00;;;4.50;;
76204;SDS011;64986;55.672;37.628;2023-03-21T11:03:59;7.20;;;3.78;;
76204;SDS011;64986;55.672;37.628;2023-03-21T11:06:31;6.05;;;3.55;;
76204;SDS011;64986;55.672;37.628;2023-03-21T11:09:05;6.10;;;3.30;;
76204;SDS011;64986;55.672;37.628;2023-03-21T11:11:36;5.65;;;3.13;;
76204;SDS011;64986;55.672;37.628;2023-03-21T11:14:05;7.25;;;3.42;;
76204;SDS011;64986;55.672;37.628;2023-03-21T11:16:40;5.53;;;3.47;;
76204;SDS011;64986;55.672;37.628;2023-03-21T11:19:15;4.20;;;3.20;;
76204;SDS011;64986;55.672;37.628;2023-03-21T11:21:51;6.22;;;3.65;;
76204;SDS011;64986;55.672;37.628;2023-03-21T11:24:17;7.15;;;3.80;;
76204;SDS011;64986;55.672;37.628;2023-03-21T11:26:44;8.10;;;4.30;;
76204;SDS011;64986;55.672;37.628;2023-03-21T11:31:50;6.15;;;3.25;;
76204;SDS011;64986;55.672;37.628;2023-03-21T11:34:26;6.15;;;3.63;;
76204;SDS011;64986;55.672;37.628;2023-03-21T11:36:59;3.72;;;2.38;;
76204;SDS011;64986;55.672;37.628;2023-03-21T11:39:30;4.65;;;3.55;;
76204;SDS011;64986;55.672;37.628;2023-03-21T11:42:51;3.58;;;2.67;;
76204;SDS011;64986;55.672;37.628;2023-03-21T11:45:04;4.97;;;2.78;;
76204;SDS011;64986;55.672;37.628;2023-03-21T11:47:36;5.00;;;2.60;;
76204;SDS011;64986;55.672;37.628;2023-03-21T11:50:05;4.90;;;2.50;;
76204;SDS011;64986;55.672;37.628;2023-03-21T11:52:42;4.55;;;2.67;;
76204;SDS011;64986;55.672;37.628;2023-03-21T12:00:51;5.00;;;2.85;;
76204;SDS011;64986;55.672;37.628;2023-03-21T12:06:16;3.95;;;2.20;;
76204;SDS011;64986;55.672;37.628;2023-03-21T12:09:04;3.58;;;1.88;;
76204;SDS011;64986;55.672;37.628;2023-03-21T12:11:33;5.72;;;2.70;;
76204;SDS011;64986;55.672;37.628;2023-03-21T12:14:07;8.00;;;2.85;;
76204;SDS011;64986;55.672;37.628;2023-03-21T12:17:05;4.30;;;2.60;;
76204;SDS011;64986;55.672;37.628;2023-03-21T12:19:56;5.78;;;2.63;;
76204;SDS011;64986;55.672;37.628;2023-03-21T12:25:47;5.50;;;2.22;;
76204;SDS011;64986;55.672;37.628;2023-03-21T12:28:34;5.30;;;3.00;;
76204;SDS011;64986;55.672;37.628;2023-03-21T12:39:39;8.00;;;2.72;;
76204;SDS011;64986;55.672;37.628;2023-03-21T12:45:11;7.05;;;2.83;;
76204;SDS011;64986;55.672;37.628;2023-03-21T12:47:45;6.50;;;1.85;;
76204;SDS011;64986;55.672;37.628;2023-03-21T12:52:57;6.13;;;2.50;;
76204;SDS011;64986;55.672;37.628;2023-03-21T12:55:30;4.43;;;2.45;;
76204;SDS011;64986;55.672;37.628;2023-03-21T12:58:12;4.75;;;2.97;;
76204;SDS011;64986;55.672;37.628;2023-03-21T13:05:58;3.70;;;2.08;;
76204;SDS011;64986;55.672;37.628;2023-03-21T13:11:06;4.80;;;3.00;;
76204;SDS011;64986;55.672;37.628;2023-03-21T13:21:56;3.63;;;2.22;;
76204;SDS011;64986;55.672;37.628;2023-03-21T13:32:41;8.10;;;3.30;;
76204;SDS011;64986;55.672;37.628;2023-03-21T13:37:48;4.25;;;2.45;;
76204;SDS011;64986;55.672;37.628;2023-03-21T13:41:16;3.92;;;2.25;;
76204;SDS011;64986;55.672;37.628;2023-03-21T13:49:12;6.88;;;2.75;;
76204;SDS011;64986;55.672;37.628;2023-03-21T13:51:43;4.47;;;2.63;;
76204;SDS011;64986;55.672;37.628;2023-03-21T13:57:19;4.95;;;2.40;;
76204;SDS011;64986;55.672;37.628;2023-03-21T14:02:51;4.90;;;3.00;;
76204;SDS011;64986;55.672;37.628;2023-03-21T14:05:30;4.75;;;2.63;;
76204;SDS011;64986;55.672;37.628;2023-03-21T14:08:08;5.70;;;2.80;;
76204;SDS011;64986;55.672;37.628;2023-03-21T14:10:51;4.65;;;2.92;;
76204;SDS011;64986;55.672;37.628;2023-03-21T14:13:22;5.03;;;3.00;;
76204;SDS011;64986;55.672;37.628;2023-03-21T14:15:54;5.25;;;2.28;;
76204;SDS011;64986;55.672;37.628;2023-03-21T14:18:25;7.60;;;3.22;;
76204;SDS011;64986;55.672;37.628;2023-03-21T14:20:52;6.65;;;2.92;;
76204;SDS011;64986;55.672;37.628;2023-03-21T14:23:19;3.88;;;2.65;;
76204;SDS011;64986;55.672;37.628;2023-03-21T14:25:45;7.20;;;2.83;;
76204;SDS011;64986;55.672;37.628;2023-03-21T14:28:25;5.78;;;2.42;;
76204;SDS011;64986;55.672;37.628;2023-03-21T14:30:54;6.05;;;2.90;;
76204;SDS011;64986;55.672;37.628;2023-03-21T14:33:36;7.38;;;2.97;;
76204;SDS011;64986;55.672;37.628;2023-03-21T14:36:14;4.35;;;2.38;;
76204;SDS011;64986;55.672;37.628;2023-03-21T14:42:04;5.78;;;2.80;;
76204;SDS011;64986;55.672;37.628;2023-03-21T14:44:38;7.03;;;2.97;;
76204;SDS011;64986;55.672;37.628;2023-03-21T14:47:15;6.78;;;3.17;;
76204;SDS011;64986;55.672;37.628;2023-03-21T14:49:43;8.98;;;3.20;;
76204;SDS011;64986;55.672;37.628;2023-03-21T14:52:13;6.35;;;2.65;;
76204;SDS011;64986;55.672;37.628;2023-03-21T14:54:44;5.80;;;2.63;;
76204;SDS011;64986;55.672;37.628;2023-03-21T14:57:12;8.95;;;4.30;;
76204;SDS011;64986;55.672;37.628;2023-03-21T14:59:40;12.63;;;3.30;;
76204;SDS011;64986;55.672;37.628;2023-03-21T15:02:17;8.65;;;3.05;;
76204;SDS011;64986;55.672;37.628;2023-03-21T15:04:50;7.45;;;2.88;;
76204;SDS011;64986;55.672;37.628;2023-03-21T15:07:31;6.43;;;2.92;;
76204;SDS011;64986;55.672;37.628;2023-03-21T15:10:03;4.22;;;3.15;;
76204;SDS011;64986;55.672;37.628;2023-03-21T15:12:32;9.98;;;3.53;;
76204;SDS011;64986;55.672;37.628;2023-03-21T15:14:58;4.53;;;2.30;;
76204;SDS011;64986;55.672;37.628;2023-03-21T15:17:25;7.07;;;3.13;;
76204;SDS011;64986;55.672;37.628;2023-03-21T15:19:51;7.82;;;3.33;;
76204;SDS011;64986;55.672;37.628;2023-03-21T15:24:56;5.30;;;3.22;;
76204;SDS011;64986;55.672;37.628;2023-03-21T15:27:26;10.30;;;3.95;;
76204;SDS011;64986;55.672;37.628;2023-03-21T15:29:57;4.60;;;3.03;;
76204;SDS011;64986;55.672;37.628;2023-03-21T15:32:24;13.90;;;3.75;;
76204;SDS011;64986;55.672;37.628;2023-03-21T15:35:03;7.28;;;3.10;;
76204;SDS011;64986;55.672;37.628;2023-03-21T15:37:35;4.40;;;2.63;;
76204;SDS011;64986;55.672;37.628;2023-03-21T15:40:06;10.55;;;3.17;;
76204;SDS011;64986;55.672;37.628;2023-03-21T15:42:37;7.57;;;3.20;;
76204;SDS011;64986;55.672;37.628;2023-03-21T15:45:24;11.00;;;3.58;;
76204;SDS011;64986;55.672;37.628;2023-03-21T15:48:27;11.98;;;3.42;;
76204;SDS011;64986;55.672;37.628;2023-03-21T15:50:48;6.43;;;3.17;;
76204;SDS011;64986;55.672;37.628;2023-03-21T15:53:20;6.10;;;3.47;;
76204;SDS011;64986;55.672;37.628;2023-03-21T15:55:49;5.72;;;3.25;;
76204;SDS011;64986;55.672;37.628;2023-03-21T15:58:23;6.40;;;3.63;;
76204;SDS011;64986;55.672;37.628;2023-03-21T16:00:52;6.38;;;2.90;;
76204;SDS011;64986;55.672;37.628;2023-03-21T16:06:01;14.80;;;3.72;;
76204;SDS011;64986;55.672;37.628;2023-03-21T16:08:31;7.70;;;3.10;;
76204;SDS011;64986;55.672;37.628;2023-03-21T16:13:49;11.15;;;3.70;;
76204;SDS011;64986;55.672;37.628;2023-03-21T16:16:20;7.60;;;3.30;;
76204;SDS011;64986;55.672;37.628;2023-03-21T16:18:47;7.88;;;3.45;;
76204;SDS011;64986;55.672;37.628;2023-03-21T16:21:14;6.30;;;3.10;;
76204;SDS011;64986;55.672;37.628;2023-03-21T16:23:41;12.77;;;3.42;;
76204;SDS011;64986;55.672;37.628;2023-03-21T16:26:10;5.30;;;2.90;;
76204;SDS011;64986;55.672;37.628;2023-03-21T16:28:41;10.38;;;3.95;;
76204;SDS011;64986;55.672;37.628;2023-03-21T16:31:15;10.98;;;3.38;;
76204;SDS011;64986;55.672;37.628;2023-03-21T16:33:43;7.30;;;2.92;;
76204;SDS011;64986;55.672;37.628;2023-03-21T16:36:31;6.72;;;2.78;;
76204;SDS011;64986;55.672;37.628;2023-03-21T16:39:00;4.93;;;2.83;;
76204;SDS011;64986;55.672;37.628;2023-03-21T16:41:26;6.18;;;3.25;;
76204;SDS011;64986;55.672;37.628;2023-03-21T16:43:52;3.85;;;2.53;;